sensor_id;sensor_type;location;lat;lon;timestamp;temperature;humidity
55083;DHT22;40978;52.850;6.506;2022-08-14T00:00:15;20.90;97.70
55083;DHT22;40978;52.850;6.506;2022-08-14T00:02:42;20.90;97.70
55083;DHT22;40978;52.850;6.506;2022-08-14T00:05:14;20.80;98.00
55083;DHT22;40978;52.850;6.506;2022-08-14T00:07:40;20.80;97.80
55083;DHT22;40978;52.850;6.506;2022-08-14T00:10:09;20.80;97.90
55083;DHT22;40978;52.850;6.506;2022-08-14T00:12:36;20.80;98.10
55083;DHT22;40978;52.850;6.506;2022-08-14T00:15:27;20.70;98.50
55083;DHT22;40978;52.850;6.506;2022-08-14T00:17:53;20.70;98.60
55083;DHT22;40978;52.850;6.506;2022-08-14T00:20:22;20.70;98.90
55083;DHT22;40978;52.850;6.506;2022-08-14T00:22:49;20.70;98.80
55083;DHT22;40978;52.850;6.506;2022-08-14T00:25:15;20.70;98.80
55083;DHT22;40978;52.850;6.506;2022-08-14T00:27:40;20.70;98.90
55083;DHT22;40978;52.850;6.506;2022-08-14T00:30:08;20.70;98.90
55083;DHT22;40978;52.850;6.506;2022-08-14T00:32:35;20.60;99.10
55083;DHT22;40978;52.850;6.506;2022-08-14T00:35:04;20.60;99.50
55083;DHT22;40978;52.850;6.506;2022-08-14T00:37:31;20.60;99.50
55083;DHT22;40978;52.850;6.506;2022-08-14T00:39:58;20.60;99.60
55083;DHT22;40978;52.850;6.506;2022-08-14T00:42:24;20.60;99.90
55083;DHT22;40978;52.850;6.506;2022-08-14T00:44:51;20.60;99.90
55083;DHT22;40978;52.850;6.506;2022-08-14T00:47:17;20.50;99.90
55083;DHT22;40978;52.850;6.506;2022-08-14T00:49:44;20.50;99.90
55083;DHT22;40978;52.850;6.506;2022-08-14T00:52:12;20.50;99.90
55083;DHT22;40978;52.850;6.506;2022-08-14T00:54:38;20.40;99.90
55083;DHT22;40978;52.850;6.506;2022-08-14T00:57:04;20.40;99.90
55083;DHT22;40978;52.850;6.506;2022-08-14T00:59:30;20.40;99.90
55083;DHT22;40978;52.850;6.506;2022-08-14T01:01:59;20.30;99.90
55083;DHT22;40978;52.850;6.506;2022-08-14T01:04:27;20.30;99.90
55083;DHT22;40978;52.850;6.506;2022-08-14T01:06:54;20.30;99.90
55083;DHT22;40978;52.850;6.506;2022-08-14T01:09:20;20.20;99.90
55083;DHT22;40978;52.850;6.506;2022-08-14T01:11:51;20.20;99.90
55083;DHT22;40978;52.850;6.506;2022-08-14T01:14:18;20.20;99.90
55083;DHT22;40978;52.850;6.506;2022-08-14T01:16:45;20.30;99.90
55083;DHT22;40978;52.850;6.506;2022-08-14T01:19:11;20.30;99.90
55083;DHT22;40978;52.850;6.506;2022-08-14T01:21:56;20.30;99.90
55083;DHT22;40978;52.850;6.506;2022-08-14T01:24:22;20.40;99.90
55083;DHT22;40978;52.850;6.506;2022-08-14T01:26:47;20.40;99.90
55083;DHT22;40978;52.850;6.506;2022-08-14T01:29:14;20.40;99.90
55083;DHT22;40978;52.850;6.506;2022-08-14T01:31:40;20.40;99.90
55083;DHT22;40978;52.850;6.506;2022-08-14T01:34:08;20.40;99.90
55083;DHT22;40978;52.850;6.506;2022-08-14T01:36:35;20.40;99.90
55083;DHT22;40978;52.850;6.506;2022-08-14T01:39:12;20.30;99.90
55083;DHT22;40978;52.850;6.506;2022-08-14T01:41:39;20.30;99.90
55083;DHT22;40978;52.850;6.506;2022-08-14T01:44:08;20.30;99.90
55083;DHT22;40978;52.850;6.506;2022-08-14T01:46:39;20.30;99.90
55083;DHT22;40978;52.850;6.506;2022-08-14T01:49:08;20.30;99.90
55083;DHT22;40978;52.850;6.506;2022-08-14T01:51:35;20.20;99.90
55083;DHT22;40978;52.850;6.506;2022-08-14T01:54:06;20.20;99.90
55083;DHT22;40978;52.850;6.506;2022-08-14T01:56:35;20.20;99.90
55083;DHT22;40978;52.850;6.506;2022-08-14T01:59:05;20.10;99.90
55083;DHT22;40978;52.850;6.506;2022-08-14T02:01:31;20.10;99.90
55083;DHT22;40978;52.850;6.506;2022-08-14T02:03:57;20.10;99.90
55083;DHT22;40978;52.850;6.506;2022-08-14T02:06:23;20.10;99.90
55083;DHT22;40978;52.850;6.506;2022-08-14T02:08:51;20.10;99.90
55083;DHT22;40978;52.850;6.506;2022-08-14T02:11:17;20.10;99.90
55083;DHT22;40978;52.850;6.506;2022-08-14T02:13:58;20.00;99.90
55083;DHT22;40978;52.850;6.506;2022-08-14T02:16:27;20.10;99.90
55083;DHT22;40978;52.850;6.506;2022-08-14T02:19:00;20.00;99.90
55083;DHT22;40978;52.850;6.506;2022-08-14T02:21:28;20.00;99.90
55083;DHT22;40978;52.850;6.506;2022-08-14T02:23:56;20.00;99.90
55083;DHT22;40978;52.850;6.506;2022-08-14T02:26:25;19.90;99.90
55083;DHT22;40978;52.850;6.506;2022-08-14T02:28:55;19.90;99.90
55083;DHT22;40978;52.850;6.506;2022-08-14T02:31:25;19.80;99.90
55083;DHT22;40978;52.850;6.506;2022-08-14T02:33:54;19.80;99.90
55083;DHT22;40978;52.850;6.506;2022-08-14T02:36:20;19.70;99.90
55083;DHT22;40978;52.850;6.506;2022-08-14T02:38:47;19.70;99.90
55083;DHT22;40978;52.850;6.506;2022-08-14T02:41:14;19.60;99.90
55083;DHT22;40978;52.850;6.506;2022-08-14T02:43:41;19.60;99.90
55083;DHT22;40978;52.850;6.506;2022-08-14T02:46:08;19.60;99.90
55083;DHT22;40978;52.850;6.506;2022-08-14T02:48:41;19.60;99.90
55083;DHT22;40978;52.850;6.506;2022-08-14T02:51:12;19.60;99.90
55083;DHT22;40978;52.850;6.506;2022-08-14T02:53:41;19.50;99.90
55083;DHT22;40978;52.850;6.506;2022-08-14T02:56:10;19.50;99.90
55083;DHT22;40978;52.850;6.506;2022-08-14T02:58:41;19.50;99.90
55083;DHT22;40978;52.850;6.506;2022-08-14T03:01:08;19.50;99.90
55083;DHT22;40978;52.850;6.506;2022-08-14T03:03:35;19.50;99.90
55083;DHT22;40978;52.850;6.506;2022-08-14T03:06:03;19.50;99.90
55083;DHT22;40978;52.850;6.506;2022-08-14T03:08:29;19.50;99.90
55083;DHT22;40978;52.850;6.506;2022-08-14T03:11:01;19.40;99.90
55083;DHT22;40978;52.850;6.506;2022-08-14T03:13:31;19.40;99.90
55083;DHT22;40978;52.850;6.506;2022-08-14T03:16:01;19.40;99.90
55083;DHT22;40978;52.850;6.506;2022-08-14T03:18:28;19.40;99.90
55083;DHT22;40978;52.850;6.506;2022-08-14T03:20:54;19.30;99.90
55083;DHT22;40978;52.850;6.506;2022-08-14T03:23:19;19.30;99.90
55083;DHT22;40978;52.850;6.506;2022-08-14T03:25:46;19.30;99.90
55083;DHT22;40978;52.850;6.506;2022-08-14T03:28:13;19.30;99.90
55083;DHT22;40978;52.850;6.506;2022-08-14T03:30:39;19.30;99.90
55083;DHT22;40978;52.850;6.506;2022-08-14T03:33:06;19.30;99.90
55083;DHT22;40978;52.850;6.506;2022-08-14T03:35:33;19.30;99.90
55083;DHT22;40978;52.850;6.506;2022-08-14T03:38:09;19.30;99.90
55083;DHT22;40978;52.850;6.506;2022-08-14T03:40:37;19.30;99.90
55083;DHT22;40978;52.850;6.506;2022-08-14T03:43:08;19.30;99.90
55083;DHT22;40978;52.850;6.506;2022-08-14T03:45:35;19.20;99.90
55083;DHT22;40978;52.850;6.506;2022-08-14T03:48:14;19.20;99.90
55083;DHT22;40978;52.850;6.506;2022-08-14T03:50:49;19.20;99.90
55083;DHT22;40978;52.850;6.506;2022-08-14T03:53:18;19.20;99.90
55083;DHT22;40978;52.850;6.506;2022-08-14T03:55:45;19.20;99.90
55083;DHT22;40978;52.850;6.506;2022-08-14T03:58:12;19.20;99.90
55083;DHT22;40978;52.850;6.506;2022-08-14T04:00:39;19.20;99.90
55083;DHT22;40978;52.850;6.506;2022-08-14T04:03:09;19.20;99.90
55083;DHT22;40978;52.850;6.506;2022-08-14T04:05:36;19.10;99.90
55083;DHT22;40978;52.850;6.506;2022-08-14T04:08:08;19.10;99.90
55083;DHT22;40978;52.850;6.506;2022-08-14T04:10:34;19.10;99.90
55083;DHT22;40978;52.850;6.506;2022-08-14T04:13:01;19.10;99.90
55083;DHT22;40978;52.850;6.506;2022-08-14T04:15:27;19.10;99.90
55083;DHT22;40978;52.850;6.506;2022-08-14T04:17:53;19.00;99.90
55083;DHT22;40978;52.850;6.506;2022-08-14T04:20:20;19.00;99.90
55083;DHT22;40978;52.850;6.506;2022-08-14T04:22:46;19.00;99.90
55083;DHT22;40978;52.850;6.506;2022-08-14T04:25:13;19.00;99.90
55083;DHT22;40978;52.850;6.506;2022-08-14T04:27:38;18.90;99.90
55083;DHT22;40978;52.850;6.506;2022-08-14T04:30:06;18.90;99.90
55083;DHT22;40978;52.850;6.506;2022-08-14T04:32:31;18.90;99.90
55083;DHT22;40978;52.850;6.506;2022-08-14T04:34:59;18.90;99.90
55083;DHT22;40978;52.850;6.506;2022-08-14T04:37:25;18.90;99.90
55083;DHT22;40978;52.850;6.506;2022-08-14T04:40:10;18.90;99.90
55083;DHT22;40978;52.850;6.506;2022-08-14T04:42:55;18.90;99.90
55083;DHT22;40978;52.850;6.506;2022-08-14T04:45:39;18.90;99.90
55083;DHT22;40978;52.850;6.506;2022-08-14T04:48:13;18.90;99.90
55083;DHT22;40978;52.850;6.506;2022-08-14T04:53:04;18.90;99.90
55083;DHT22;40978;52.850;6.506;2022-08-14T04:55:30;18.90;99.90
55083;DHT22;40978;52.850;6.506;2022-08-14T04:57:56;18.90;99.90
55083;DHT22;40978;52.850;6.506;2022-08-14T05:00:23;18.90;99.90
55083;DHT22;40978;52.850;6.506;2022-08-14T05:02:49;19.00;99.90
55083;DHT22;40978;52.850;6.506;2022-08-14T05:05:15;19.00;99.90
55083;DHT22;40978;52.850;6.506;2022-08-14T05:07:41;19.00;99.90
55083;DHT22;40978;52.850;6.506;2022-08-14T05:10:07;19.20;99.90
55083;DHT22;40978;52.850;6.506;2022-08-14T05:12:33;19.20;99.90
55083;DHT22;40978;52.850;6.506;2022-08-14T05:14:59;19.30;99.90
55083;DHT22;40978;52.850;6.506;2022-08-14T05:17:24;19.40;99.90
55083;DHT22;40978;52.850;6.506;2022-08-14T05:19:51;19.40;99.90
55083;DHT22;40978;52.850;6.506;2022-08-14T05:22:18;19.50;99.90
55083;DHT22;40978;52.850;6.506;2022-08-14T05:24:45;19.60;99.90
55083;DHT22;40978;52.850;6.506;2022-08-14T05:27:12;19.60;99.90
55083;DHT22;40978;52.850;6.506;2022-08-14T05:29:38;19.70;99.90
55083;DHT22;40978;52.850;6.506;2022-08-14T05:32:05;19.80;99.90
55083;DHT22;40978;52.850;6.506;2022-08-14T05:34:32;19.80;99.90
55083;DHT22;40978;52.850;6.506;2022-08-14T05:36:59;19.90;99.90
55083;DHT22;40978;52.850;6.506;2022-08-14T05:39:26;20.00;99.90
55083;DHT22;40978;52.850;6.506;2022-08-14T05:41:52;20.10;99.90
55083;DHT22;40978;52.850;6.506;2022-08-14T05:44:18;20.20;99.90
55083;DHT22;40978;52.850;6.506;2022-08-14T05:46:43;20.30;99.90
55083;DHT22;40978;52.850;6.506;2022-08-14T05:49:09;20.70;99.90
55083;DHT22;40978;52.850;6.506;2022-08-14T05:51:35;21.00;99.90
55083;DHT22;40978;52.850;6.506;2022-08-14T05:54:01;21.00;99.90
55083;DHT22;40978;52.850;6.506;2022-08-14T05:56:26;21.00;99.90
55083;DHT22;40978;52.850;6.506;2022-08-14T05:58:53;21.00;99.90
55083;DHT22;40978;52.850;6.506;2022-08-14T06:01:19;21.00;99.90
55083;DHT22;40978;52.850;6.506;2022-08-14T06:03:45;21.10;99.90
55083;DHT22;40978;52.850;6.506;2022-08-14T06:06:10;21.20;99.90
55083;DHT22;40978;52.850;6.506;2022-08-14T06:08:36;21.30;99.90
55083;DHT22;40978;52.850;6.506;2022-08-14T06:11:05;21.30;99.90
55083;DHT22;40978;52.850;6.506;2022-08-14T06:13:33;21.40;99.90
55083;DHT22;40978;52.850;6.506;2022-08-14T06:15:59;21.50;99.90
55083;DHT22;40978;52.850;6.506;2022-08-14T06:18:25;21.60;99.90
55083;DHT22;40978;52.850;6.506;2022-08-14T06:20:51;21.70;99.90
55083;DHT22;40978;52.850;6.506;2022-08-14T06:23:18;21.80;99.90
55083;DHT22;40978;52.850;6.506;2022-08-14T06:25:44;21.90;99.90
55083;DHT22;40978;52.850;6.506;2022-08-14T06:28:21;22.10;99.90
55083;DHT22;40978;52.850;6.506;2022-08-14T06:30:48;22.20;99.90
55083;DHT22;40978;52.850;6.506;2022-08-14T06:33:16;22.30;99.90
55083;DHT22;40978;52.850;6.506;2022-08-14T06:35:42;22.40;99.90
55083;DHT22;40978;52.850;6.506;2022-08-14T06:38:14;22.50;99.90
55083;DHT22;40978;52.850;6.506;2022-08-14T06:40:40;22.70;99.90
55083;DHT22;40978;52.850;6.506;2022-08-14T06:43:08;22.70;99.90
55083;DHT22;40978;52.850;6.506;2022-08-14T06:45:36;22.70;99.90
55083;DHT22;40978;52.850;6.506;2022-08-14T06:48:02;22.70;99.90
55083;DHT22;40978;52.850;6.506;2022-08-14T06:50:29;22.80;99.90
55083;DHT22;40978;52.850;6.506;2022-08-14T06:52:59;22.90;99.90
55083;DHT22;40978;52.850;6.506;2022-08-14T06:55:25;23.00;99.90
55083;DHT22;40978;52.850;6.506;2022-08-14T06:57:51;23.10;99.90
55083;DHT22;40978;52.850;6.506;2022-08-14T07:00:21;23.20;99.90
55083;DHT22;40978;52.850;6.506;2022-08-14T07:02:47;23.30;99.90
55083;DHT22;40978;52.850;6.506;2022-08-14T07:05:32;23.50;99.90
55083;DHT22;40978;52.850;6.506;2022-08-14T07:10:38;23.80;99.90
55083;DHT22;40978;52.850;6.506;2022-08-14T07:13:04;24.00;99.80
55083;DHT22;40978;52.850;6.506;2022-08-14T07:15:33;24.10;99.50
55083;DHT22;40978;52.850;6.506;2022-08-14T07:18:00;24.20;99.00
55083;DHT22;40978;52.850;6.506;2022-08-14T07:20:26;24.30;99.20
55083;DHT22;40978;52.850;6.506;2022-08-14T07:22:52;24.50;98.40
55083;DHT22;40978;52.850;6.506;2022-08-14T07:25:24;24.60;98.80
55083;DHT22;40978;52.850;6.506;2022-08-14T07:27:49;24.90;97.70
55083;DHT22;40978;52.850;6.506;2022-08-14T07:30:15;25.00;97.80
55083;DHT22;40978;52.850;6.506;2022-08-14T07:32:41;25.20;97.40
55083;DHT22;40978;52.850;6.506;2022-08-14T07:35:07;25.50;95.90
55083;DHT22;40978;52.850;6.506;2022-08-14T07:37:33;25.60;95.00
55083;DHT22;40978;52.850;6.506;2022-08-14T07:40:02;25.80;94.60
55083;DHT22;40978;52.850;6.506;2022-08-14T07:42:28;25.80;94.40
55083;DHT22;40978;52.850;6.506;2022-08-14T07:44:57;26.00;94.80
55083;DHT22;40978;52.850;6.506;2022-08-14T07:47:23;26.20;94.50
55083;DHT22;40978;52.850;6.506;2022-08-14T07:50:03;26.30;93.00
55083;DHT22;40978;52.850;6.506;2022-08-14T07:52:29;26.40;92.20
55083;DHT22;40978;52.850;6.506;2022-08-14T07:54:55;26.70;92.00
55083;DHT22;40978;52.850;6.506;2022-08-14T07:57:21;27.00;90.80
55083;DHT22;40978;52.850;6.506;2022-08-14T07:59:47;27.20;89.70
55083;DHT22;40978;52.850;6.506;2022-08-14T08:02:17;27.50;89.20
55083;DHT22;40978;52.850;6.506;2022-08-14T08:04:51;27.90;87.00
55083;DHT22;40978;52.850;6.506;2022-08-14T08:07:21;28.30;84.80
55083;DHT22;40978;52.850;6.506;2022-08-14T08:09:55;28.70;81.50
55083;DHT22;40978;52.850;6.506;2022-08-14T08:12:24;29.10;79.40
55083;DHT22;40978;52.850;6.506;2022-08-14T08:14:50;29.20;77.60
55083;DHT22;40978;52.850;6.506;2022-08-14T08:17:17;29.00;76.10
55083;DHT22;40978;52.850;6.506;2022-08-14T08:19:45;29.20;75.90
55083;DHT22;40978;52.850;6.506;2022-08-14T08:22:13;29.60;74.60
55083;DHT22;40978;52.850;6.506;2022-08-14T08:24:38;29.90;74.10
55083;DHT22;40978;52.850;6.506;2022-08-14T08:27:18;30.20;72.40
55083;DHT22;40978;52.850;6.506;2022-08-14T08:29:46;30.40;69.10
55083;DHT22;40978;52.850;6.506;2022-08-14T08:32:12;30.50;69.80
55083;DHT22;40978;52.850;6.506;2022-08-14T08:34:45;30.70;68.40
55083;DHT22;40978;52.850;6.506;2022-08-14T08:37:13;30.80;66.60
55083;DHT22;40978;52.850;6.506;2022-08-14T08:39:48;31.10;67.00
55083;DHT22;40978;52.850;6.506;2022-08-14T08:42:24;31.20;65.50
55083;DHT22;40978;52.850;6.506;2022-08-14T08:44:56;31.50;65.30
55083;DHT22;40978;52.850;6.506;2022-08-14T08:47:22;31.70;62.50
55083;DHT22;40978;52.850;6.506;2022-08-14T08:49:47;31.70;62.70
55083;DHT22;40978;52.850;6.506;2022-08-14T08:52:13;31.80;62.40
55083;DHT22;40978;52.850;6.506;2022-08-14T08:54:39;31.70;61.40
55083;DHT22;40978;52.850;6.506;2022-08-14T08:57:11;31.80;60.80
55083;DHT22;40978;52.850;6.506;2022-08-14T08:59:37;32.00;60.60
55083;DHT22;40978;52.850;6.506;2022-08-14T09:02:05;31.90;60.40
55083;DHT22;40978;52.850;6.506;2022-08-14T09:04:39;32.10;61.20
55083;DHT22;40978;52.850;6.506;2022-08-14T09:07:09;32.50;59.90
55083;DHT22;40978;52.850;6.506;2022-08-14T09:09:35;32.80;58.90
55083;DHT22;40978;52.850;6.506;2022-08-14T09:12:22;33.00;58.50
55083;DHT22;40978;52.850;6.506;2022-08-14T09:14:47;33.20;58.00
55083;DHT22;40978;52.850;6.506;2022-08-14T09:17:15;33.40;57.00
55083;DHT22;40978;52.850;6.506;2022-08-14T09:19:41;33.50;55.00
55083;DHT22;40978;52.850;6.506;2022-08-14T09:22:07;33.30;55.40
55083;DHT22;40978;52.850;6.506;2022-08-14T09:24:33;33.30;54.90
55083;DHT22;40978;52.850;6.506;2022-08-14T09:26:58;33.30;55.30
55083;DHT22;40978;52.850;6.506;2022-08-14T09:29:24;33.30;54.90
55083;DHT22;40978;52.850;6.506;2022-08-14T09:31:55;33.10;54.30
55083;DHT22;40978;52.850;6.506;2022-08-14T09:46:06;33.50;53.10
55083;DHT22;40978;52.850;6.506;2022-08-14T09:48:34;33.50;54.30
55083;DHT22;40978;52.850;6.506;2022-08-14T09:51:02;33.60;54.00
55083;DHT22;40978;52.850;6.506;2022-08-14T09:53:38;33.50;53.00
55083;DHT22;40978;52.850;6.506;2022-08-14T09:56:06;33.50;53.60
55083;DHT22;40978;52.850;6.506;2022-08-14T09:58:45;33.50;52.60
55083;DHT22;40978;52.850;6.506;2022-08-14T10:01:13;33.60;52.20
55083;DHT22;40978;52.850;6.506;2022-08-14T10:03:51;33.50;51.80
55083;DHT22;40978;52.850;6.506;2022-08-14T10:06:19;33.50;50.90
55083;DHT22;40978;52.850;6.506;2022-08-14T10:08:49;33.20;51.50
55083;DHT22;40978;52.850;6.506;2022-08-14T10:11:24;33.00;51.80
55083;DHT22;40978;52.850;6.506;2022-08-14T10:13:52;33.00;52.00
55083;DHT22;40978;52.850;6.506;2022-08-14T10:16:26;33.10;53.30
55083;DHT22;40978;52.850;6.506;2022-08-14T10:19:14;33.30;51.40
55083;DHT22;40978;52.850;6.506;2022-08-14T10:21:42;33.40;51.10
55083;DHT22;40978;52.850;6.506;2022-08-14T10:24:09;33.30;51.20
55083;DHT22;40978;52.850;6.506;2022-08-14T10:26:36;33.10;51.70
55083;DHT22;40978;52.850;6.506;2022-08-14T10:29:09;33.00;52.20
55083;DHT22;40978;52.850;6.506;2022-08-14T10:31:36;33.10;51.80
55083;DHT22;40978;52.850;6.506;2022-08-14T10:34:07;32.90;52.00
55083;DHT22;40978;52.850;6.506;2022-08-14T10:36:41;32.90;51.20
55083;DHT22;40978;52.850;6.506;2022-08-14T10:39:17;32.80;51.90
55083;DHT22;40978;52.850;6.506;2022-08-14T10:41:44;32.70;52.50
55083;DHT22;40978;52.850;6.506;2022-08-14T10:44:20;32.80;52.50
55083;DHT22;40978;52.850;6.506;2022-08-14T10:46:52;33.00;51.40
55083;DHT22;40978;52.850;6.506;2022-08-14T10:49:21;33.10;50.70
55083;DHT22;40978;52.850;6.506;2022-08-14T10:52:02;33.10;50.90
55083;DHT22;40978;52.850;6.506;2022-08-14T10:54:51;33.30;50.30
55083;DHT22;40978;52.850;6.506;2022-08-14T10:57:21;33.30;50.80
55083;DHT22;40978;52.850;6.506;2022-08-14T11:05:16;33.80;50.00
55083;DHT22;40978;52.850;6.506;2022-08-14T11:10:23;34.10;47.90
55083;DHT22;40978;52.850;6.506;2022-08-14T11:12:54;34.00;47.40
55083;DHT22;40978;52.850;6.506;2022-08-14T11:15:30;34.00;47.60
55083;DHT22;40978;52.850;6.506;2022-08-14T11:17:56;34.00;47.90
55083;DHT22;40978;52.850;6.506;2022-08-14T11:20:25;33.90;48.90
55083;DHT22;40978;52.850;6.506;2022-08-14T11:22:56;34.00;49.10
55083;DHT22;40978;52.850;6.506;2022-08-14T11:25:24;33.90;47.70
55083;DHT22;40978;52.850;6.506;2022-08-14T11:27:52;33.70;48.60
55083;DHT22;40978;52.850;6.506;2022-08-14T11:30:27;33.50;48.60
55083;DHT22;40978;52.850;6.506;2022-08-14T11:32:56;33.50;48.70
55083;DHT22;40978;52.850;6.506;2022-08-14T11:35:24;33.60;48.80
55083;DHT22;40978;52.850;6.506;2022-08-14T11:37:56;33.50;48.20
55083;DHT22;40978;52.850;6.506;2022-08-14T11:40:28;33.20;49.70
55083;DHT22;40978;52.850;6.506;2022-08-14T11:42:56;33.30;48.70
55083;DHT22;40978;52.850;6.506;2022-08-14T11:45:28;33.50;49.00
55083;DHT22;40978;52.850;6.506;2022-08-14T11:48:00;33.90;48.00
55083;DHT22;40978;52.850;6.506;2022-08-14T11:50:31;34.20;48.00
55083;DHT22;40978;52.850;6.506;2022-08-14T11:52:58;34.30;46.40
55083;DHT22;40978;52.850;6.506;2022-08-14T11:55:33;34.30;47.10
55083;DHT22;40978;52.850;6.506;2022-08-14T11:58:02;34.50;47.30
55083;DHT22;40978;52.850;6.506;2022-08-14T12:00:29;34.70;46.50
55083;DHT22;40978;52.850;6.506;2022-08-14T12:02:56;34.80;46.40
55083;DHT22;40978;52.850;6.506;2022-08-14T12:05:29;34.80;46.80
55083;DHT22;40978;52.850;6.506;2022-08-14T12:07:56;35.00;46.00
55083;DHT22;40978;52.850;6.506;2022-08-14T12:10:23;35.30;46.40
55083;DHT22;40978;52.850;6.506;2022-08-14T12:12:49;35.50;45.00
55083;DHT22;40978;52.850;6.506;2022-08-14T12:15:31;35.50;45.30
55083;DHT22;40978;52.850;6.506;2022-08-14T12:17:57;35.30;44.50
55083;DHT22;40978;52.850;6.506;2022-08-14T12:20:32;34.90;45.70
55083;DHT22;40978;52.850;6.506;2022-08-14T12:22:59;34.70;46.20
55083;DHT22;40978;52.850;6.506;2022-08-14T12:25:25;34.80;46.40
55083;DHT22;40978;52.850;6.506;2022-08-14T12:27:53;35.10;46.50
55083;DHT22;40978;52.850;6.506;2022-08-14T12:32:54;35.80;45.90
55083;DHT22;40978;52.850;6.506;2022-08-14T12:35:21;36.10;45.70
55083;DHT22;40978;52.850;6.506;2022-08-14T12:37:50;36.40;44.60
55083;DHT22;40978;52.850;6.506;2022-08-14T12:40:17;36.40;43.70
55083;DHT22;40978;52.850;6.506;2022-08-14T12:42:44;36.40;42.60
55083;DHT22;40978;52.850;6.506;2022-08-14T12:45:10;36.20;44.20
55083;DHT22;40978;52.850;6.506;2022-08-14T12:47:39;36.30;44.00
55083;DHT22;40978;52.850;6.506;2022-08-14T12:50:05;36.20;43.30
55083;DHT22;40978;52.850;6.506;2022-08-14T12:52:34;35.70;43.60
55083;DHT22;40978;52.850;6.506;2022-08-14T12:55:03;35.20;44.40
55083;DHT22;40978;52.850;6.506;2022-08-14T12:57:35;35.00;44.50
55083;DHT22;40978;52.850;6.506;2022-08-14T13:00:15;34.90;44.60
55083;DHT22;40978;52.850;6.506;2022-08-14T13:02:42;34.60;44.70
55083;DHT22;40978;52.850;6.506;2022-08-14T13:05:10;34.20;46.00
55083;DHT22;40978;52.850;6.506;2022-08-14T13:07:37;33.90;45.20
55083;DHT22;40978;52.850;6.506;2022-08-14T13:10:06;33.60;46.20
55083;DHT22;40978;52.850;6.506;2022-08-14T13:12:32;33.70;46.40
55083;DHT22;40978;52.850;6.506;2022-08-14T13:14:58;33.90;46.30
55083;DHT22;40978;52.850;6.506;2022-08-14T13:17:26;34.20;46.50
55083;DHT22;40978;52.850;6.506;2022-08-14T13:19:55;34.40;45.50
55083;DHT22;40978;52.850;6.506;2022-08-14T13:22:24;34.30;45.50
55083;DHT22;40978;52.850;6.506;2022-08-14T13:24:53;34.30;45.20
55083;DHT22;40978;52.850;6.506;2022-08-14T13:27:23;34.50;45.40
55083;DHT22;40978;52.850;6.506;2022-08-14T13:29:56;34.30;45.10
55083;DHT22;40978;52.850;6.506;2022-08-14T13:32:25;33.80;45.20
55083;DHT22;40978;52.850;6.506;2022-08-14T13:34:53;33.40;46.00
55083;DHT22;40978;52.850;6.506;2022-08-14T13:37:18;33.10;47.10
55083;DHT22;40978;52.850;6.506;2022-08-14T13:39:49;33.00;47.30
55083;DHT22;40978;52.850;6.506;2022-08-14T13:42:20;33.00;46.40
55083;DHT22;40978;52.850;6.506;2022-08-14T13:44:48;33.00;47.10
55083;DHT22;40978;52.850;6.506;2022-08-14T13:47:22;33.20;46.80
55083;DHT22;40978;52.850;6.506;2022-08-14T13:49:50;33.20;46.30
55083;DHT22;40978;52.850;6.506;2022-08-14T13:52:19;33.20;46.20
55083;DHT22;40978;52.850;6.506;2022-08-14T13:54:47;33.20;47.00
55083;DHT22;40978;52.850;6.506;2022-08-14T13:57:15;33.30;46.70
55083;DHT22;40978;52.850;6.506;2022-08-14T13:59:49;33.30;47.00
55083;DHT22;40978;52.850;6.506;2022-08-14T14:02:16;33.40;46.90
55083;DHT22;40978;52.850;6.506;2022-08-14T14:04:45;33.50;45.50
55083;DHT22;40978;52.850;6.506;2022-08-14T14:07:12;33.70;46.50
55083;DHT22;40978;52.850;6.506;2022-08-14T14:09:44;33.70;46.50
55083;DHT22;40978;52.850;6.506;2022-08-14T14:12:11;33.80;46.40
55083;DHT22;40978;52.850;6.506;2022-08-14T14:14:38;33.90;46.00
55083;DHT22;40978;52.850;6.506;2022-08-14T14:17:05;33.80;44.70
55083;DHT22;40978;52.850;6.506;2022-08-14T14:19:34;33.60;45.50
55083;DHT22;40978;52.850;6.506;2022-08-14T14:22:00;33.50;45.60
55083;DHT22;40978;52.850;6.506;2022-08-14T14:24:28;33.60;46.00
55083;DHT22;40978;52.850;6.506;2022-08-14T14:26:57;33.50;46.40
55083;DHT22;40978;52.850;6.506;2022-08-14T14:29:26;33.40;46.00
55083;DHT22;40978;52.850;6.506;2022-08-14T14:31:56;33.30;45.70
55083;DHT22;40978;52.850;6.506;2022-08-14T14:34:24;33.10;46.10
55083;DHT22;40978;52.850;6.506;2022-08-14T14:36:51;32.90;46.90
55083;DHT22;40978;52.850;6.506;2022-08-14T14:39:21;32.90;46.80
55083;DHT22;40978;52.850;6.506;2022-08-14T14:41:52;32.90;47.30
55083;DHT22;40978;52.850;6.506;2022-08-14T14:44:22;32.90;47.00
55083;DHT22;40978;52.850;6.506;2022-08-14T14:46:48;32.60;46.90
55083;DHT22;40978;52.850;6.506;2022-08-14T14:49:17;32.30;47.20
55083;DHT22;40978;52.850;6.506;2022-08-14T14:51:44;32.00;47.90
55083;DHT22;40978;52.850;6.506;2022-08-14T14:54:11;31.70;48.30
55083;DHT22;40978;52.850;6.506;2022-08-14T14:56:39;31.60;48.90
55083;DHT22;40978;52.850;6.506;2022-08-14T14:59:06;31.50;49.30
55083;DHT22;40978;52.850;6.506;2022-08-14T15:01:34;31.50;49.30
55083;DHT22;40978;52.850;6.506;2022-08-14T15:04:00;31.30;49.40
55083;DHT22;40978;52.850;6.506;2022-08-14T15:06:29;31.30;49.50
55083;DHT22;40978;52.850;6.506;2022-08-14T15:08:57;31.30;49.70
55083;DHT22;40978;52.850;6.506;2022-08-14T15:11:22;31.30;49.60
55083;DHT22;40978;52.850;6.506;2022-08-14T15:13:48;31.40;49.10
55083;DHT22;40978;52.850;6.506;2022-08-14T15:16:14;31.30;49.70
55083;DHT22;40978;52.850;6.506;2022-08-14T15:18:40;31.20;49.80
55083;DHT22;40978;52.850;6.506;2022-08-14T15:21:06;31.10;50.20
55083;DHT22;40978;52.850;6.506;2022-08-14T15:23:33;31.00;50.90
55083;DHT22;40978;52.850;6.506;2022-08-14T15:25:59;30.80;50.40
55083;DHT22;40978;52.850;6.506;2022-08-14T15:28:25;30.70;51.10
55083;DHT22;40978;52.850;6.506;2022-08-14T15:30:52;30.70;51.40
55083;DHT22;40978;52.850;6.506;2022-08-14T15:33:19;30.80;51.30
55083;DHT22;40978;52.850;6.506;2022-08-14T15:36:05;30.80;50.70
55083;DHT22;40978;52.850;6.506;2022-08-14T15:38:31;30.90;50.70
55083;DHT22;40978;52.850;6.506;2022-08-14T15:40:58;31.00;50.90
55083;DHT22;40978;52.850;6.506;2022-08-14T15:43:27;31.10;51.00
55083;DHT22;40978;52.850;6.506;2022-08-14T15:45:53;31.20;50.60
55083;DHT22;40978;52.850;6.506;2022-08-14T15:48:20;31.20;50.70
55083;DHT22;40978;52.850;6.506;2022-08-14T15:50:46;31.30;50.50
55083;DHT22;40978;52.850;6.506;2022-08-14T15:53:11;31.30;50.50
55083;DHT22;40978;52.850;6.506;2022-08-14T15:55:37;31.20;50.50
55083;DHT22;40978;52.850;6.506;2022-08-14T15:58:03;31.10;50.50
55083;DHT22;40978;52.850;6.506;2022-08-14T16:00:30;31.00;50.40
55083;DHT22;40978;52.850;6.506;2022-08-14T16:03:15;31.00;51.10
55083;DHT22;40978;52.850;6.506;2022-08-14T16:05:44;30.90;51.60